sensor_id;sensor_type;location;lat;lon;timestamp;P1;durP1;ratioP1;P2;durP2;ratioP2
75427;SDS011;64008;55.612;37.698;2023-06-24T00:02:05;11.40;;;7.22;;
75427;SDS011;64008;55.612;37.698;2023-06-24T00:04:31;12.50;;;7.95;;
75427;SDS011;64008;55.612;37.698;2023-06-24T00:06:56;12.30;;;8.63;;
75427;SDS011;64008;55.612;37.698;2023-06-24T00:09:26;14.98;;;6.63;;
75427;SDS011;64008;55.612;37.698;2023-06-24T00:11:58;13.30;;;7.70;;
75427;SDS011;64008;55.612;37.698;2023-06-24T00:14:24;12.23;;;7.30;;
75427;SDS011;64008;55.612;37.698;2023-06-24T00:16:51;14.88;;;8.15;;
75427;SDS011;64008;55.612;37.698;2023-06-24T00:21:51;10.43;;;7.20;;
75427;SDS011;64008;55.612;37.698;2023-06-24T00:24:18;12.00;;;6.95;;
75427;SDS011;64008;55.612;37.698;2023-06-24T00:26:45;12.20;;;7.47;;
75427;SDS011;64008;55.612;37.698;2023-06-24T00:29:12;11.35;;;7.68;;
75427;SDS011;64008;55.612;37.698;2023-06-24T00:31:37;10.20;;;7.55;;
75427;SDS011;64008;55.612;37.698;2023-06-24T00:34:03;11.95;;;7.93;;
75427;SDS011;64008;55.612;37.698;2023-06-24T00:36:29;10.80;;;6.85;;
75427;SDS011;64008;55.612;37.698;2023-06-24T00:38:57;10.38;;;6.60;;
75427;SDS011;64008;55.612;37.698;2023-06-24T00:41:25;11.00;;;6.85;;
75427;SDS011;64008;55.612;37.698;2023-06-24T00:43:51;9.32;;;6.38;;
75427;SDS011;64008;55.612;37.698;2023-06-24T00:46:17;10.02;;;6.22;;
75427;SDS011;64008;55.612;37.698;2023-06-24T00:48:44;10.48;;;6.60;;
75427;SDS011;64008;55.612;37.698;2023-06-24T00:51:10;9.23;;;6.28;;
75427;SDS011;64008;55.612;37.698;2023-06-24T00:53:36;8.73;;;5.82;;
75427;SDS011;64008;55.612;37.698;2023-06-24T00:56:01;11.00;;;6.10;;
75427;SDS011;64008;55.612;37.698;2023-06-24T00:58:31;9.48;;;6.35;;
75427;SDS011;64008;55.612;37.698;2023-06-24T01:00:57;8.68;;;5.43;;
75427;SDS011;64008;55.612;37.698;2023-06-24T01:03:24;10.85;;;6.38;;
75427;SDS011;64008;55.612;37.698;2023-06-24T01:05:50;8.65;;;5.80;;
75427;SDS011;64008;55.612;37.698;2023-06-24T01:08:17;9.73;;;5.90;;
75427;SDS011;64008;55.612;37.698;2023-06-24T01:10:44;10.02;;;6.72;;
75427;SDS011;64008;55.612;37.698;2023-06-24T01:13:10;10.05;;;6.35;;
75427;SDS011;64008;55.612;37.698;2023-06-24T01:15:35;11.35;;;7.00;;
75427;SDS011;64008;55.612;37.698;2023-06-24T01:20:34;9.25;;;6.25;;
75427;SDS011;64008;55.612;37.698;2023-06-24T01:24:02;9.10;;;5.88;;
75427;SDS011;64008;55.612;37.698;2023-06-24T01:31:50;9.55;;;6.22;;
75427;SDS011;64008;55.612;37.698;2023-06-24T01:34:25;11.75;;;6.53;;
75427;SDS011;64008;55.612;37.698;2023-06-24T01:37:08;9.57;;;6.28;;
75427;SDS011;64008;55.612;37.698;2023-06-24T01:39:34;8.35;;;5.22;;
75427;SDS011;64008;55.612;37.698;2023-06-24T01:42:07;9.63;;;5.30;;
75427;SDS011;64008;55.612;37.698;2023-06-24T01:44:35;9.02;;;5.95;;
75427;SDS011;64008;55.612;37.698;2023-06-24T01:47:02;8.95;;;5.82;;
75427;SDS011;64008;55.612;37.698;2023-06-24T01:49:30;10.35;;;6.35;;
75427;SDS011;64008;55.612;37.698;2023-06-24T01:51:58;9.52;;;5.75;;
75427;SDS011;64008;55.612;37.698;2023-06-24T01:54:28;8.55;;;4.65;;
75427;SDS011;64008;55.612;37.698;2023-06-24T01:56:55;8.63;;;5.35;;
75427;SDS011;64008;55.612;37.698;2023-06-24T01:59:22;9.48;;;5.72;;
75427;SDS011;64008;55.612;37.698;2023-06-24T02:01:48;8.35;;;5.60;;
75427;SDS011;64008;55.612;37.698;2023-06-24T02:04:17;8.65;;;5.38;;
75427;SDS011;64008;55.612;37.698;2023-06-24T02:06:45;9.73;;;5.65;;
75427;SDS011;64008;55.612;37.698;2023-06-24T02:09:12;9.95;;;6.05;;
75427;SDS011;64008;55.612;37.698;2023-06-24T02:11:41;10.43;;;6.47;;
75427;SDS011;64008;55.612;37.698;2023-06-24T02:14:07;9.00;;;5.25;;
75427;SDS011;64008;55.612;37.698;2023-06-24T02:16:34;9.10;;;5.15;;
75427;SDS011;64008;55.612;37.698;2023-06-24T02:19:01;7.57;;;5.57;;
75427;SDS011;64008;55.612;37.698;2023-06-24T02:21:28;7.03;;;4.57;;
75427;SDS011;64008;55.612;37.698;2023-06-24T02:23:54;7.25;;;4.55;;
75427;SDS011;64008;55.612;37.698;2023-06-24T02:26:21;7.75;;;4.45;;
75427;SDS011;64008;55.612;37.698;2023-06-24T02:28:48;6.82;;;4.07;;
75427;SDS011;64008;55.612;37.698;2023-06-24T02:31:15;5.82;;;3.78;;
75427;SDS011;64008;55.612;37.698;2023-06-24T02:33:41;5.63;;;3.17;;
75427;SDS011;64008;55.612;37.698;2023-06-24T02:36:07;5.47;;;3.08;;
75427;SDS011;64008;55.612;37.698;2023-06-24T02:38:32;4.68;;;2.42;;
75427;SDS011;64008;55.612;37.698;2023-06-24T02:40:58;7.10;;;2.47;;
75427;SDS011;64008;55.612;37.698;2023-06-24T02:43:25;6.75;;;2.90;;
75427;SDS011;64008;55.612;37.698;2023-06-24T02:45:51;6.53;;;2.58;;
75427;SDS011;64008;55.612;37.698;2023-06-24T02:48:18;5.03;;;2.45;;
75427;SDS011;64008;55.612;37.698;2023-06-24T02:50:45;3.72;;;2.00;;
75427;SDS011;64008;55.612;37.698;2023-06-24T02:53:12;4.07;;;2.03;;
75427;SDS011;64008;55.612;37.698;2023-06-24T02:55:40;3.83;;;1.95;;
75427;SDS011;64008;55.612;37.698;2023-06-24T02:58:06;3.80;;;1.73;;
75427;SDS011;64008;55.612;37.698;2023-06-24T03:00:34;5.00;;;1.80;;
75427;SDS011;64008;55.612;37.698;2023-06-24T03:05:26;4.93;;;2.15;;
75427;SDS011;64008;55.612;37.698;2023-06-24T03:10:18;4.37;;;1.83;;
75427;SDS011;64008;55.612;37.698;2023-06-24T03:12:44;5.22;;;2.00;;
75427;SDS011;64008;55.612;37.698;2023-06-24T03:15:09;4.68;;;1.80;;
75427;SDS011;64008;55.612;37.698;2023-06-24T03:17:35;3.85;;;1.40;;
75427;SDS011;64008;55.612;37.698;2023-06-24T03:20:01;3.40;;;1.50;;
75427;SDS011;64008;55.612;37.698;2023-06-24T03:22:27;3.95;;;1.60;;
75427;SDS011;64008;55.612;37.698;2023-06-24T03:24:53;3.38;;;1.33;;
75427;SDS011;64008;55.612;37.698;2023-06-24T03:27:18;4.07;;;1.30;;
75427;SDS011;64008;55.612;37.698;2023-06-24T03:29:44;3.72;;;1.25;;
75427;SDS011;64008;55.612;37.698;2023-06-24T03:32:10;4.45;;;1.10;;
75427;SDS011;64008;55.612;37.698;2023-06-24T03:34:35;3.53;;;1.10;;
75427;SDS011;64008;55.612;37.698;2023-06-24T03:37:00;5.15;;;1.33;;
75427;SDS011;64008;55.612;37.698;2023-06-24T03:39:26;5.72;;;1.42;;
75427;SDS011;64008;55.612;37.698;2023-06-24T03:41:51;3.22;;;1.17;;
75427;SDS011;64008;55.612;37.698;2023-06-24T03:44:17;3.33;;;1.17;;
75427;SDS011;64008;55.612;37.698;2023-06-24T03:46:42;3.78;;;1.27;;
75427;SDS011;64008;55.612;37.698;2023-06-24T03:49:08;3.88;;;0.98;;
75427;SDS011;64008;55.612;37.698;2023-06-24T03:51:33;4.43;;;1.40;;
75427;SDS011;64008;55.612;37.698;2023-06-24T03:53:59;3.10;;;1.00;;
75427;SDS011;64008;55.612;37.698;2023-06-24T03:56:24;3.95;;;1.05;;
75427;SDS011;64008;55.612;37.698;2023-06-24T03:58:50;2.80;;;1.00;;
75427;SDS011;64008;55.612;37.698;2023-06-24T04:01:15;2.95;;;1.13;;
75427;SDS011;64008;55.612;37.698;2023-06-24T04:03:44;4.20;;;1.00;;
75427;SDS011;64008;55.612;37.698;2023-06-24T04:06:10;4.82;;;1.00;;
75427;SDS011;64008;55.612;37.698;2023-06-24T04:08:35;2.85;;;0.90;;
75427;SDS011;64008;55.612;37.698;2023-06-24T04:11:04;2.55;;;0.82;;
75427;SDS011;64008;55.612;37.698;2023-06-24T04:13:31;3.22;;;1.20;;
75427;SDS011;64008;55.612;37.698;2023-06-24T04:16:00;2.90;;;0.80;;
75427;SDS011;64008;55.612;37.698;2023-06-24T04:18:26;2.38;;;0.80;;
75427;SDS011;64008;55.612;37.698;2023-06-24T04:20:51;2.63;;;0.90;;
75427;SDS011;64008;55.612;37.698;2023-06-24T04:23:17;2.13;;;0.73;;
75427;SDS011;64008;55.612;37.698;2023-06-24T04:25:43;2.28;;;0.90;;
75427;SDS011;64008;55.612;37.698;2023-06-24T04:28:08;2.38;;;1.00;;
75427;SDS011;64008;55.612;37.698;2023-06-24T04:30:34;2.88;;;0.95;;
75427;SDS011;64008;55.612;37.698;2023-06-24T04:33:00;2.65;;;0.80;;
75427;SDS011;64008;55.612;37.698;2023-06-24T04:35:27;4.57;;;0.75;;
75427;SDS011;64008;55.612;37.698;2023-06-24T04:37:52;2.08;;;0.80;;
75427;SDS011;64008;55.612;37.698;2023-06-24T04:40:18;2.50;;;0.90;;
75427;SDS011;64008;55.612;37.698;2023-06-24T04:42:44;3.28;;;0.73;;
75427;SDS011;64008;55.612;37.698;2023-06-24T04:45:10;6.05;;;1.20;;
75427;SDS011;64008;55.612;37.698;2023-06-24T04:47:36;3.78;;;1.08;;
75427;SDS011;64008;55.612;37.698;2023-06-24T04:50:02;2.17;;;0.73;;
75427;SDS011;64008;55.612;37.698;2023-06-24T04:52:27;10.13;;;1.42;;
75427;SDS011;64008;55.612;37.698;2023-06-24T04:54:53;7.40;;;2.53;;
75427;SDS011;64008;55.612;37.698;2023-06-24T04:57:31;12.15;;;3.85;;
75427;SDS011;64008;55.612;37.698;2023-06-24T04:59:57;11.60;;;4.40;;
75427;SDS011;64008;55.612;37.698;2023-06-24T05:02:23;10.13;;;3.28;;
75427;SDS011;64008;55.612;37.698;2023-06-24T05:04:49;20.30;;;9.88;;
75427;SDS011;64008;55.612;37.698;2023-06-24T05:07:16;21.55;;;8.60;;
75427;SDS011;64008;55.612;37.698;2023-06-24T05:09:42;14.43;;;5.47;;
75427;SDS011;64008;55.612;37.698;2023-06-24T05:14:34;7.97;;;2.78;;
75427;SDS011;64008;55.612;37.698;2023-06-24T05:17:00;7.50;;;2.92;;
75427;SDS011;64008;55.612;37.698;2023-06-24T05:19:25;7.10;;;2.15;;
75427;SDS011;64008;55.612;37.698;2023-06-24T05:21:51;7.30;;;2.03;;
75427;SDS011;64008;55.612;37.698;2023-06-24T05:24:16;6.95;;;1.88;;
75427;SDS011;64008;55.612;37.698;2023-06-24T05:26:42;4.00;;;1.67;;
75427;SDS011;64008;55.612;37.698;2023-06-24T05:29:07;5.07;;;1.50;;
75427;SDS011;64008;55.612;37.698;2023-06-24T05:31:33;5.45;;;1.55;;
75427;SDS011;64008;55.612;37.698;2023-06-24T05:33:58;5.07;;;1.70;;
75427;SDS011;64008;55.612;37.698;2023-06-24T05:36:24;3.20;;;1.30;;
75427;SDS011;64008;55.612;37.698;2023-06-24T05:38:49;4.35;;;1.20;;
75427;SDS011;64008;55.612;37.698;2023-06-24T05:41:15;2.72;;;0.95;;
75427;SDS011;64008;55.612;37.698;2023-06-24T05:43:42;3.95;;;1.08;;
75427;SDS011;64008;55.612;37.698;2023-06-24T05:46:08;5.40;;;1.00;;
75427;SDS011;64008;55.612;37.698;2023-06-24T05:48:34;4.78;;;0.90;;
75427;SDS011;64008;55.612;37.698;2023-06-24T05:50:59;3.10;;;0.93;;
75427;SDS011;64008;55.612;37.698;2023-06-24T05:53:25;2.33;;;0.85;;
75427;SDS011;64008;55.612;37.698;2023-06-24T05:55:50;4.38;;;1.13;;
75427;SDS011;64008;55.612;37.698;2023-06-24T05:58:16;7.13;;;1.40;;
75427;SDS011;64008;55.612;37.698;2023-06-24T06:00:41;6.80;;;0.85;;
75427;SDS011;64008;55.612;37.698;2023-06-24T06:03:07;5.78;;;1.33;;
75427;SDS011;64008;55.612;37.698;2023-06-24T06:05:32;4.80;;;0.90;;
75427;SDS011;64008;55.612;37.698;2023-06-24T06:07:58;4.35;;;0.90;;
75427;SDS011;64008;55.612;37.698;2023-06-24T06:10:24;4.65;;;1.10;;
75427;SDS011;64008;55.612;37.698;2023-06-24T06:12:49;4.32;;;0.93;;
75427;SDS011;64008;55.612;37.698;2023-06-24T06:15:15;5.28;;;1.20;;
75427;SDS011;64008;55.612;37.698;2023-06-24T06:17:40;4.10;;;0.90;;
75427;SDS011;64008;55.612;37.698;2023-06-24T06:20:06;3.13;;;0.93;;
75427;SDS011;64008;55.612;37.698;2023-06-24T06:22:32;6.88;;;1.13;;
75427;SDS011;64008;55.612;37.698;2023-06-24T06:25:02;8.48;;;1.10;;
75427;SDS011;64008;55.612;37.698;2023-06-24T06:27:29;4.05;;;0.90;;
75427;SDS011;64008;55.612;37.698;2023-06-24T06:29:54;3.53;;;0.90;;
75427;SDS011;64008;55.612;37.698;2023-06-24T06:32:20;3.28;;;0.90;;
75427;SDS011;64008;55.612;37.698;2023-06-24T06:34:45;4.60;;;0.98;;
75427;SDS011;64008;55.612;37.698;2023-06-24T06:37:11;5.75;;;1.08;;
75427;SDS011;64008;55.612;37.698;2023-06-24T06:39:36;4.97;;;1.10;;
75427;SDS011;64008;55.612;37.698;2023-06-24T06:42:02;3.88;;;1.27;;
75427;SDS011;64008;55.612;37.698;2023-06-24T06:44:27;3.60;;;1.00;;
75427;SDS011;64008;55.612;37.698;2023-06-24T06:46:53;3.05;;;0.90;;
75427;SDS011;64008;55.612;37.698;2023-06-24T06:49:18;3.22;;;1.02;;
75427;SDS011;64008;55.612;37.698;2023-06-24T06:51:44;3.90;;;1.05;;
75427;SDS011;64008;55.612;37.698;2023-06-24T06:54:09;3.17;;;1.20;;
75427;SDS011;64008;55.612;37.698;2023-06-24T06:56:35;7.63;;;2.20;;
75427;SDS011;64008;55.612;37.698;2023-06-24T06:59:00;6.78;;;3.25;;
75427;SDS011;64008;55.612;37.698;2023-06-24T07:01:25;5.07;;;1.33;;
75427;SDS011;64008;55.612;37.698;2023-06-24T07:03:51;4.93;;;1.40;;
75427;SDS011;64008;55.612;37.698;2023-06-24T07:06:20;4.78;;;1.30;;
75427;SDS011;64008;55.612;37.698;2023-06-24T07:08:45;3.85;;;1.15;;
75427;SDS011;64008;55.612;37.698;2023-06-24T07:11:11;3.53;;;1.20;;
75427;SDS011;64008;55.612;37.698;2023-06-24T07:13:36;4.03;;;1.00;;
75427;SDS011;64008;55.612;37.698;2023-06-24T07:16:02;3.80;;;1.00;;
75427;SDS011;64008;55.612;37.698;2023-06-24T07:18:27;3.85;;;0.90;;
75427;SDS011;64008;55.612;37.698;2023-06-24T07:20:55;3.30;;;1.08;;
75427;SDS011;64008;55.612;37.698;2023-06-24T07:23:22;4.03;;;1.00;;
75427;SDS011;64008;55.612;37.698;2023-06-24T07:25:47;4.20;;;1.20;;
75427;SDS011;64008;55.612;37.698;2023-06-24T07:28:13;4.75;;;1.15;;
75427;SDS011;64008;55.612;37.698;2023-06-24T07:30:39;4.40;;;1.48;;
75427;SDS011;64008;55.612;37.698;2023-06-24T07:33:07;4.80;;;1.27;;
75427;SDS011;64008;55.612;37.698;2023-06-24T07:35:33;4.40;;;1.55;;
75427;SDS011;64008;55.612;37.698;2023-06-24T07:37:58;2.50;;;1.20;;
75427;SDS011;64008;55.612;37.698;2023-06-24T07:40:24;4.07;;;1.10;;
75427;SDS011;64008;55.612;37.698;2023-06-24T07:42:50;6.43;;;1.40;;
75427;SDS011;64008;55.612;37.698;2023-06-24T07:45:15;3.47;;;1.20;;
75427;SDS011;64008;55.612;37.698;2023-06-24T07:47:41;5.00;;;1.30;;
75427;SDS011;64008;55.612;37.698;2023-06-24T07:50:06;4.10;;;1.30;;
75427;SDS011;64008;55.612;37.698;2023-06-24T07:52:34;4.95;;;1.50;;
75427;SDS011;64008;55.612;37.698;2023-06-24T07:54:59;3.85;;;1.27;;
75427;SDS011;64008;55.612;37.698;2023-06-24T07:57:26;4.72;;;1.35;;
75427;SDS011;64008;55.612;37.698;2023-06-24T07:59:51;5.57;;;1.27;;
75427;SDS011;64008;55.612;37.698;2023-06-24T08:02:19;4.63;;;1.33;;
75427;SDS011;64008;55.612;37.698;2023-06-24T08:04:45;4.40;;;1.50;;
75427;SDS011;64008;55.612;37.698;2023-06-24T08:07:10;5.13;;;1.70;;
75427;SDS011;64008;55.612;37.698;2023-06-24T08:09:35;4.13;;;1.85;;
75427;SDS011;64008;55.612;37.698;2023-06-24T08:12:01;3.38;;;1.30;;
75427;SDS011;64008;55.612;37.698;2023-06-24T08:14:27;5.00;;;1.80;;
75427;SDS011;64008;55.612;37.698;2023-06-24T08:16:52;4.47;;;1.60;;
75427;SDS011;64008;55.612;37.698;2023-06-24T08:19:18;4.47;;;1.50;;
75427;SDS011;64008;55.612;37.698;2023-06-24T08:21:43;5.68;;;1.30;;
75427;SDS011;64008;55.612;37.698;2023-06-24T08:24:09;4.72;;;1.45;;
75427;SDS011;64008;55.612;37.698;2023-06-24T08:26:35;4.85;;;1.10;;
75427;SDS011;64008;55.612;37.698;2023-06-24T08:29:00;5.88;;;1.42;;
75427;SDS011;64008;55.612;37.698;2023-06-24T08:31:26;5.03;;;1.58;;
75427;SDS011;64008;55.612;37.698;2023-06-24T08:33:52;4.93;;;1.63;;
75427;SDS011;64008;55.612;37.698;2023-06-24T08:36:18;4.82;;;1.80;;
75427;SDS011;64008;55.612;37.698;2023-06-24T08:38:44;4.45;;;1.63;;
75427;SDS011;64008;55.612;37.698;2023-06-24T08:41:09;8.43;;;1.95;;
75427;SDS011;64008;55.612;37.698;2023-06-24T08:43:35;5.07;;;1.27;;
75427;SDS011;64008;55.612;37.698;2023-06-24T08:46:00;4.03;;;1.33;;
75427;SDS011;64008;55.612;37.698;2023-06-24T08:48:26;4.88;;;1.35;;
75427;SDS011;64008;55.612;37.698;2023-06-24T08:50:54;3.92;;;1.20;;
75427;SDS011;64008;55.612;37.698;2023-06-24T08:53:23;5.32;;;1.23;;
75427;SDS011;64008;55.612;37.698;2023-06-24T08:55:51;3.58;;;1.38;;
75427;SDS011;64008;55.612;37.698;2023-06-24T08:58:19;3.63;;;1.50;;
75427;SDS011;64008;55.612;37.698;2023-06-24T09:00:45;4.78;;;1.63;;
75427;SDS011;64008;55.612;37.698;2023-06-24T09:05:36;4.22;;;1.40;;
75427;SDS011;64008;55.612;37.698;2023-06-24T09:08:02;5.97;;;1.50;;
75427;SDS011;64008;55.612;37.698;2023-06-24T09:10:31;4.22;;;1.60;;
75427;SDS011;64008;55.612;37.698;2023-06-24T09:12:58;6.43;;;1.65;;
75427;SDS011;64008;55.612;37.698;2023-06-24T09:15:31;4.00;;;1.65;;
75427;SDS011;64008;55.612;37.698;2023-06-24T09:17:58;6.72;;;2.30;;
75427;SDS011;64008;55.612;37.698;2023-06-24T09:20:25;7.75;;;2.38;;
75427;SDS011;64008;55.612;37.698;2023-06-24T09:22:51;5.22;;;1.90;;
75427;SDS011;64008;55.612;37.698;2023-06-24T09:25:23;7.18;;;2.22;;
75427;SDS011;64008;55.612;37.698;2023-06-24T09:27:48;4.55;;;1.98;;
75427;SDS011;64008;55.612;37.698;2023-06-24T09:30:20;4.68;;;1.92;;
75427;SDS011;64008;55.612;37.698;2023-06-24T09:35:19;8.93;;;1.77;;
75427;SDS011;64008;55.612;37.698;2023-06-24T09:40:18;4.95;;;2.10;;
75427;SDS011;64008;55.612;37.698;2023-06-24T09:45:13;4.38;;;2.00;;
75427;SDS011;64008;55.612;37.698;2023-06-24T09:47:39;4.13;;;2.08;;
75427;SDS011;64008;55.612;37.698;2023-06-24T09:50:04;4.78;;;1.92;;
75427;SDS011;64008;55.612;37.698;2023-06-24T09:52:30;5.05;;;1.92;;
75427;SDS011;64008;55.612;37.698;2023-06-24T09:54:57;10.13;;;2.35;;
75427;SDS011;64008;55.612;37.698;2023-06-24T09:57:28;8.13;;;2.13;;
75427;SDS011;64008;55.612;37.698;2023-06-24T09:59:56;4.60;;;2.00;;
75427;SDS011;64008;55.612;37.698;2023-06-24T10:04:48;7.13;;;2.67;;
75427;SDS011;64008;55.612;37.698;2023-06-24T10:07:15;5.88;;;2.30;;
75427;SDS011;64008;55.612;37.698;2023-06-24T10:09:42;6.53;;;2.10;;
75427;SDS011;64008;55.612;37.698;2023-06-24T10:12:08;10.32;;;2.50;;
75427;SDS011;64008;55.612;37.698;2023-06-24T10:14:34;5.32;;;2.03;;
75427;SDS011;64008;55.612;37.698;2023-06-24T10:17:01;4.45;;;1.90;;
75427;SDS011;64008;55.612;37.698;2023-06-24T10:19:28;5.50;;;2.47;;
75427;SDS011;64008;55.612;37.698;2023-06-24T10:21:54;5.53;;;2.50;;
75427;SDS011;64008;55.612;37.698;2023-06-24T10:24:29;4.88;;;2.13;;
75427;SDS011;64008;55.612;37.698;2023-06-24T10:27:16;7.20;;;2.40;;
75427;SDS011;64008;55.612;37.698;2023-06-24T10:29:46;4.22;;;2.53;;
75427;SDS011;64008;55.612;37.698;2023-06-24T10:32:13;4.90;;;2.58;;
75427;SDS011;64008;55.612;37.698;2023-06-24T10:34:39;4.80;;;2.72;;
75427;SDS011;64008;55.612;37.698;2023-06-24T10:37:10;4.25;;;2.38;;
75427;SDS011;64008;55.612;37.698;2023-06-24T10:44:48;5.03;;;2.80;;
75427;SDS011;64008;55.612;37.698;2023-06-24T10:47:14;4.45;;;2.33;;
75427;SDS011;64008;55.612;37.698;2023-06-24T10:49:40;6.07;;;2.97;;
75427;SDS011;64008;55.612;37.698;2023-06-24T10:52:12;4.60;;;2.33;;
75427;SDS011;64008;55.612;37.698;2023-06-24T10:54:38;4.70;;;2.75;;
75427;SDS011;64008;55.612;37.698;2023-06-24T10:59:42;6.53;;;2.80;;
75427;SDS011;64008;55.612;37.698;2023-06-24T11:02:25;5.80;;;2.65;;
75427;SDS011;64008;55.612;37.698;2023-06-24T11:04:52;5.38;;;2.42;;
75427;SDS011;64008;55.612;37.698;2023-06-24T11:07:23;6.32;;;3.30;;
75427;SDS011;64008;55.612;37.698;2023-06-24T11:09:50;6.10;;;3.13;;
75427;SDS011;64008;55.612;37.698;2023-06-24T11:12:23;5.22;;;2.83;;
75427;SDS011;64008;55.612;37.698;2023-06-24T11:14:59;5.60;;;3.10;;
75427;SDS011;64008;55.612;37.698;2023-06-24T11:17:29;6.70;;;3.17;;
75427;SDS011;64008;55.612;37.698;2023-06-24T11:19:55;8.20;;;2.67;;
75427;SDS011;64008;55.612;37.698;2023-06-24T11:22:22;4.80;;;2.50;;
75427;SDS011;64008;55.612;37.698;2023-06-24T11:24:48;5.03;;;2.60;;
75427;SDS011;64008;55.612;37.698;2023-06-24T11:27:14;5.75;;;3.20;;
75427;SDS011;64008;55.612;37.698;2023-06-24T11:29:40;6.22;;;2.90;;
75427;SDS011;64008;55.612;37.698;2023-06-24T11:32:09;5.55;;;2.63;;
75427;SDS011;64008;55.612;37.698;2023-06-24T11:34:35;7.40;;;2.47;;
75427;SDS011;64008;55.612;37.698;2023-06-24T11:37:08;6.05;;;2.90;;
75427;SDS011;64008;55.612;37.698;2023-06-24T11:39:38;5.90;;;3.50;;
75427;SDS011;64008;55.612;37.698;2023-06-24T11:42:05;6.18;;;3.28;;
75427;SDS011;64008;55.612;37.698;2023-06-24T11:44:33;5.25;;;2.90;;
75427;SDS011;64008;55.612;37.698;2023-06-24T11:47:08;7.43;;;3.55;;
75427;SDS011;64008;55.612;37.698;2023-06-24T11:49:56;6.10;;;3.10;;
75427;SDS011;64008;55.612;37.698;2023-06-24T11:52:33;6.68;;;3.50;;
75427;SDS011;64008;55.612;37.698;2023-06-24T11:55:01;6.15;;;3.47;;
75427;SDS011;64008;55.612;37.698;2023-06-24T12:00:21;5.97;;;3.15;;
75427;SDS011;64008;55.612;37.698;2023-06-24T12:02:57;7.15;;;3.22;;
75427;SDS011;64008;55.612;37.698;2023-06-24T12:05:28;6.72;;;3.45;;
75427;SDS011;64008;55.612;37.698;2023-06-24T12:07:55;7.78;;;3.05;;
75427;SDS011;64008;55.612;37.698;2023-06-24T12:10:22;7.63;;;3.65;;
75427;SDS011;64008;55.612;37.698;2023-06-24T12:12:48;6.85;;;2.92;;
75427;SDS011;64008;55.612;37.698;2023-06-24T12:15:14;5.93;;;3.58;;
75427;SDS011;64008;55.612;37.698;2023-06-24T12:17:39;7.07;;;3.17;;
75427;SDS011;64008;55.612;37.698;2023-06-24T12:20:05;7.07;;;3.10;;
75427;SDS011;64008;55.612;37.698;2023-06-24T12:22:31;6.38;;;2.90;;
75427;SDS011;64008;55.612;37.698;2023-06-24T12:24:56;7.18;;;3.20;;
75427;SDS011;64008;55.612;37.698;2023-06-24T12:27:22;6.72;;;2.80;;
75427;SDS011;64008;55.612;37.698;2023-06-24T12:29:47;5.47;;;2.80;;
75427;SDS011;64008;55.612;37.698;2023-06-24T12:32:13;5.28;;;3.13;;
75427;SDS011;64008;55.612;37.698;2023-06-24T12:34:38;4.97;;;2.92;;
75427;SDS011;64008;55.612;37.698;2023-06-24T12:37:04;6.00;;;2.75;;
75427;SDS011;64008;55.612;37.698;2023-06-24T12:39:29;6.47;;;2.80;;
75427;SDS011;64008;55.612;37.698;2023-06-24T12:41:55;6.93;;;4.13;;
75427;SDS011;64008;55.612;37.698;2023-06-24T12:44:20;10.07;;;5.38;;
75427;SDS011;64008;55.612;37.698;2023-06-24T12:46:46;6.15;;;3.45;;
75427;SDS011;64008;55.612;37.698;2023-06-24T12:49:11;8.95;;;2.75;;
75427;SDS011;64008;55.612;37.698;2023-06-24T12:51:37;5.68;;;2.92;;
75427;SDS011;64008;55.612;37.698;2023-06-24T12:54:02;5.40;;;3.38;;
75427;SDS011;64008;55.612;37.698;2023-06-24T12:56:28;6.38;;;2.90;;
75427;SDS011;64008;55.612;37.698;2023-06-24T12:58:53;4.80;;;2.40;;
75427;SDS011;64008;55.612;37.698;2023-06-24T13:01:19;4.82;;;2.50;;
75427;SDS011;64008;55.612;37.698;2023-06-24T13:03:44;5.05;;;2.58;;
75427;SDS011;64008;55.612;37.698;2023-06-24T13:06:10;6.35;;;2.45;;
75427;SDS011;64008;55.612;37.698;2023-06-24T13:08:36;4.47;;;2.50;;
75427;SDS011;64008;55.612;37.698;2023-06-24T13:11:01;4.88;;;2.30;;
75427;SDS011;64008;55.612;37.698;2023-06-24T13:13:28;5.05;;;2.28;;
75427;SDS011;64008;55.612;37.698;2023-06-24T13:15:53;4.47;;;2.42;;
75427;SDS011;64008;55.612;37.698;2023-06-24T13:18:19;4.97;;;2.55;;
75427;SDS011;64008;55.612;37.698;2023-06-24T13:20:44;4.70;;;2.22;;
75427;SDS011;64008;55.612;37.698;2023-06-24T13:23:10;4.40;;;2.25;;
75427;SDS011;64008;55.612;37.698;2023-06-24T13:25:36;4.55;;;2.60;;
75427;SDS011;64008;55.612;37.698;2023-06-24T13:28:02;5.53;;;2.50;;
75427;SDS011;64008;55.612;37.698;2023-06-24T13:30:28;4.70;;;2.63;;
75427;SDS011;64008;55.612;37.698;2023-06-24T13:32:53;5.78;;;2.60;;
75427;SDS011;64008;55.612;37.698;2023-06-24T13:35:19;6.20;;;2.92;;
75427;SDS011;64008;55.612;37.698;2023-06-24T13:37:44;6.40;;;3.15;;
75427;SDS011;64008;55.612;37.698;2023-06-24T13:40:10;7.63;;;2.92;;
75427;SDS011;64008;55.612;37.698;2023-06-24T13:42:36;6.10;;;2.90;;
75427;SDS011;64008;55.612;37.698;2023-06-24T13:45:02;6.30;;;3.67;;
75427;SDS011;64008;55.612;37.698;2023-06-24T13:47:27;7.05;;;3.70;;
75427;SDS011;64008;55.612;37.698;2023-06-24T13:49:53;6.63;;;2.92;;
75427;SDS011;64008;55.612;37.698;2023-06-24T13:52:19;7.00;;;2.60;;
75427;SDS011;64008;55.612;37.698;2023-06-24T13:54:45;5.60;;;2.83;;
75427;SDS011;64008;55.612;37.698;2023-06-24T13:57:11;5.63;;;3.25;;
75427;SDS011;64008;55.612;37.698;2023-06-24T13:59:37;4.45;;;2.47;;
75427;SDS011;64008;55.612;37.698;2023-06-24T14:02:02;5.55;;;2.13;;
75427;SDS011;64008;55.612;37.698;2023-06-24T14:04:30;5.57;;;2.70;;
75427;SDS011;64008;55.612;37.698;2023-06-24T14:06:55;8.05;;;2.95;;
75427;SDS011;64008;55.612;37.698;2023-06-24T14:09:21;5.63;;;2.80;;
75427;SDS011;64008;55.612;37.698;2023-06-24T14:11:46;6.35;;;2.53;;
75427;SDS011;64008;55.612;37.698;2023-06-24T14:14:12;4.75;;;2.53;;
75427;SDS011;64008;55.612;37.698;2023-06-24T14:16:37;5.78;;;2.80;;
75427;SDS011;64008;55.612;37.698;2023-06-24T14:19:03;5.75;;;2.70;;
75427;SDS011;64008;55.612;37.698;2023-06-24T14:21:28;8.38;;;3.50;;
75427;SDS011;64008;55.612;37.698;2023-06-24T14:23:56;9.18;;;3.03;;
75427;SDS011;64008;55.612;37.698;2023-06-24T14:26:22;5.68;;;2.60;;
75427;SDS011;64008;55.612;37.698;2023-06-24T14:28:48;6.07;;;2.75;;
75427;SDS011;64008;55.612;37.698;2023-06-24T14:31:13;7.38;;;2.50;;
75427;SDS011;64008;55.612;37.698;2023-06-24T14:33:38;11.68;;;3.28;;
75427;SDS011;64008;55.612;37.698;2023-06-24T14:36:05;6.20;;;2.70;;
75427;SDS011;64008;55.612;37.698;2023-06-24T14:38:31;10.55;;;2.40;;
75427;SDS011;64008;55.612;37.698;2023-06-24T14:40:56;8.65;;;2.25;;
75427;SDS011;64008;55.612;37.698;2023-06-24T14:43:22;4.75;;;2.20;;
75427;SDS011;64008;55.612;37.698;2023-06-24T14:45:47;4.82;;;2.40;;
75427;SDS011;64008;55.612;37.698;2023-06-24T14:48:13;6.10;;;2.30;;
75427;SDS011;64008;55.612;37.698;2023-06-24T14:50:38;7.22;;;2.25;;
75427;SDS011;64008;55.612;37.698;2023-06-24T14:53:04;6.93;;;2.33;;
75427;SDS011;64008;55.612;37.698;2023-06-24T14:55:29;6.38;;;2.40;;
75427;SDS011;64008;55.612;37.698;2023-06-24T14:57:55;6.13;;;2.20;;
75427;SDS011;64008;55.612;37.698;2023-06-24T15:00:21;5.40;;;2.47;;
75427;SDS011;64008;55.612;37.698;2023-06-24T15:02:47;6.15;;;3.10;;
75427;SDS011;64008;55.612;37.698;2023-06-24T15:05:12;4.82;;;2.13;;
75427;SDS011;64008;55.612;37.698;2023-06-24T15:07:38;5.70;;;2.42;;
75427;SDS011;64008;55.612;37.698;2023-06-24T15:10:04;6.53;;;2.25;;
75427;SDS011;64008;55.612;37.698;2023-06-24T15:12:30;5.35;;;2.40;;